sensor_id;sensor_type;location;lat;lon;timestamp;temperature;humidity
27306;DHT22;14792;50.886;6.468;2023-06-24T00:01:21;18.00;99.90
27306;DHT22;14792;50.886;6.468;2023-06-24T00:04:23;18.00;99.90
27306;DHT22;14792;50.886;6.468;2023-06-24T00:07:25;17.90;99.90
27306;DHT22;14792;50.886;6.468;2023-06-24T00:10:26;17.80;99.90
27306;DHT22;14792;50.886;6.468;2023-06-24T00:13:28;17.80;99.90
27306;DHT22;14792;50.886;6.468;2023-06-24T00:16:29;17.70;99.90
27306;DHT22;14792;50.886;6.468;2023-06-24T00:19:31;17.60;99.90
27306;DHT22;14792;50.886;6.468;2023-06-24T00:22:33;17.60;99.90
27306;DHT22;14792;50.886;6.468;2023-06-24T00:25:34;17.50;99.90
27306;DHT22;14792;50.886;6.468;2023-06-24T00:28:36;17.40;99.90
27306;DHT22;14792;50.886;6.468;2023-06-24T00:31:37;17.40;99.90
27306;DHT22;14792;50.886;6.468;2023-06-24T00:34:39;17.40;99.90
27306;DHT22;14792;50.886;6.468;2023-06-24T00:37:40;17.30;99.90
27306;DHT22;14792;50.886;6.468;2023-06-24T00:40:42;17.20;99.90
27306;DHT22;14792;50.886;6.468;2023-06-24T00:43:44;17.20;99.90
27306;DHT22;14792;50.886;6.468;2023-06-24T00:46:45;17.20;99.90
27306;DHT22;14792;50.886;6.468;2023-06-24T00:49:47;17.30;99.90
27306;DHT22;14792;50.886;6.468;2023-06-24T00:52:48;17.20;99.90
27306;DHT22;14792;50.886;6.468;2023-06-24T00:55:51;17.20;99.90
27306;DHT22;14792;50.886;6.468;2023-06-24T00:58:52;17.20;99.90
27306;DHT22;14792;50.886;6.468;2023-06-24T01:01:53;17.30;99.90
27306;DHT22;14792;50.886;6.468;2023-06-24T01:04:55;17.20;99.90
27306;DHT22;14792;50.886;6.468;2023-06-24T01:07:56;17.30;99.90
27306;DHT22;14792;50.886;6.468;2023-06-24T01:10:58;17.30;99.90
27306;DHT22;14792;50.886;6.468;2023-06-24T01:14:00;17.30;99.90
27306;DHT22;14792;50.886;6.468;2023-06-24T01:17:03;17.30;99.90
27306;DHT22;14792;50.886;6.468;2023-06-24T01:20:10;17.30;99.90
27306;DHT22;14792;50.886;6.468;2023-06-24T01:23:25;17.30;99.90
27306;DHT22;14792;50.886;6.468;2023-06-24T01:33:13;17.30;99.90
27306;DHT22;14792;50.886;6.468;2023-06-24T01:36:13;17.30;99.90
27306;DHT22;14792;50.886;6.468;2023-06-24T01:39:15;17.30;99.90
27306;DHT22;14792;50.886;6.468;2023-06-24T01:42:17;17.30;99.90
27306;DHT22;14792;50.886;6.468;2023-06-24T01:45:35;17.20;99.90
27306;DHT22;14792;50.886;6.468;2023-06-24T01:48:35;17.10;99.90
27306;DHT22;14792;50.886;6.468;2023-06-24T01:51:36;17.10;99.90
27306;DHT22;14792;50.886;6.468;2023-06-24T01:54:38;17.00;99.90
27306;DHT22;14792;50.886;6.468;2023-06-24T01:57:39;17.00;99.90
27306;DHT22;14792;50.886;6.468;2023-06-24T02:00:41;17.00;99.90
27306;DHT22;14792;50.886;6.468;2023-06-24T02:03:42;16.90;99.90
27306;DHT22;14792;50.886;6.468;2023-06-24T02:06:44;16.90;99.90
27306;DHT22;14792;50.886;6.468;2023-06-24T02:09:45;16.80;99.90
27306;DHT22;14792;50.886;6.468;2023-06-24T02:12:48;17.00;99.90
27306;DHT22;14792;50.886;6.468;2023-06-24T02:15:49;17.00;99.90
27306;DHT22;14792;50.886;6.468;2023-06-24T02:18:50;17.00;99.90
27306;DHT22;14792;50.886;6.468;2023-06-24T02:21:52;16.90;99.90
27306;DHT22;14792;50.886;6.468;2023-06-24T02:24:53;16.90;99.90
27306;DHT22;14792;50.886;6.468;2023-06-24T02:27:55;16.90;99.90
27306;DHT22;14792;50.886;6.468;2023-06-24T02:30:57;16.90;99.90
27306;DHT22;14792;50.886;6.468;2023-06-24T02:33:58;16.90;99.90
27306;DHT22;14792;50.886;6.468;2023-06-24T02:37:00;16.90;99.90
27306;DHT22;14792;50.886;6.468;2023-06-24T02:40:01;16.90;99.90
27306;DHT22;14792;50.886;6.468;2023-06-24T02:43:03;16.90;99.90
27306;DHT22;14792;50.886;6.468;2023-06-24T02:46:05;16.90;99.90
27306;DHT22;14792;50.886;6.468;2023-06-24T02:49:06;16.80;99.90
27306;DHT22;14792;50.886;6.468;2023-06-24T02:52:08;16.80;99.90
27306;DHT22;14792;50.886;6.468;2023-06-24T02:55:09;16.80;99.90
27306;DHT22;14792;50.886;6.468;2023-06-24T02:58:11;16.90;99.90
27306;DHT22;14792;50.886;6.468;2023-06-24T03:01:13;16.90;99.90
27306;DHT22;14792;50.886;6.468;2023-06-24T03:04:14;16.90;99.90
27306;DHT22;14792;50.886;6.468;2023-06-24T03:07:16;16.80;99.90
27306;DHT22;14792;50.886;6.468;2023-06-24T03:10:17;16.70;99.90
27306;DHT22;14792;50.886;6.468;2023-06-24T03:13:19;16.60;99.90
27306;DHT22;14792;50.886;6.468;2023-06-24T03:16:21;16.50;99.90
27306;DHT22;14792;50.886;6.468;2023-06-24T03:19:22;16.60;99.90
27306;DHT22;14792;50.886;6.468;2023-06-24T03:22:24;16.50;99.90
27306;DHT22;14792;50.886;6.468;2023-06-24T03:25:25;16.50;99.90
27306;DHT22;14792;50.886;6.468;2023-06-24T03:28:27;16.60;99.90
27306;DHT22;14792;50.886;6.468;2023-06-24T03:31:29;16.60;99.90
27306;DHT22;14792;50.886;6.468;2023-06-24T03:34:30;16.60;99.90
27306;DHT22;14792;50.886;6.468;2023-06-24T03:37:32;16.60;99.90
27306;DHT22;14792;50.886;6.468;2023-06-24T03:40:33;16.60;99.90
27306;DHT22;14792;50.886;6.468;2023-06-24T03:43:35;16.70;99.90
27306;DHT22;14792;50.886;6.468;2023-06-24T03:46:37;16.60;99.90
27306;DHT22;14792;50.886;6.468;2023-06-24T03:49:38;16.60;99.90
27306;DHT22;14792;50.886;6.468;2023-06-24T03:52:40;16.60;99.90
27306;DHT22;14792;50.886;6.468;2023-06-24T03:55:41;16.60;99.90
27306;DHT22;14792;50.886;6.468;2023-06-24T03:58:43;16.60;99.90
27306;DHT22;14792;50.886;6.468;2023-06-24T04:01:45;16.60;99.90
27306;DHT22;14792;50.886;6.468;2023-06-24T04:04:46;16.70;99.90
27306;DHT22;14792;50.886;6.468;2023-06-24T04:07:48;16.60;99.90
27306;DHT22;14792;50.886;6.468;2023-06-24T04:10:49;16.60;99.90
27306;DHT22;14792;50.886;6.468;2023-06-24T04:13:51;16.50;99.90
27306;DHT22;14792;50.886;6.468;2023-06-24T04:16:53;16.50;99.90
27306;DHT22;14792;50.886;6.468;2023-06-24T04:19:55;16.50;99.90
27306;DHT22;14792;50.886;6.468;2023-06-24T04:22:57;16.50;99.90
27306;DHT22;14792;50.886;6.468;2023-06-24T04:25:58;16.60;99.90
27306;DHT22;14792;50.886;6.468;2023-06-24T04:28:59;16.60;99.90
27306;DHT22;14792;50.886;6.468;2023-06-24T04:32:01;16.70;99.90
27306;DHT22;14792;50.886;6.468;2023-06-24T04:35:02;16.70;99.90
27306;DHT22;14792;50.886;6.468;2023-06-24T04:38:04;16.70;99.90
27306;DHT22;14792;50.886;6.468;2023-06-24T04:41:06;16.80;99.90
27306;DHT22;14792;50.886;6.468;2023-06-24T04:44:07;16.90;99.90
27306;DHT22;14792;50.886;6.468;2023-06-24T04:47:09;17.00;99.90
27306;DHT22;14792;50.886;6.468;2023-06-24T04:50:10;17.10;99.90
27306;DHT22;14792;50.886;6.468;2023-06-24T04:53:12;17.10;99.90
27306;DHT22;14792;50.886;6.468;2023-06-24T04:56:14;17.20;99.90
27306;DHT22;14792;50.886;6.468;2023-06-24T04:59:15;17.30;99.90
27306;DHT22;14792;50.886;6.468;2023-06-24T05:02:17;17.30;99.90
27306;DHT22;14792;50.886;6.468;2023-06-24T05:05:18;17.30;99.90
27306;DHT22;14792;50.886;6.468;2023-06-24T05:08:20;17.30;99.90
27306;DHT22;14792;50.886;6.468;2023-06-24T05:11:22;17.50;99.90
27306;DHT22;14792;50.886;6.468;2023-06-24T05:14:24;17.50;99.90
27306;DHT22;14792;50.886;6.468;2023-06-24T05:17:25;17.60;99.90
27306;DHT22;14792;50.886;6.468;2023-06-24T05:20:27;17.60;99.90
27306;DHT22;14792;50.886;6.468;2023-06-24T05:23:29;17.70;99.90
27306;DHT22;14792;50.886;6.468;2023-06-24T05:26:30;17.80;99.90
27306;DHT22;14792;50.886;6.468;2023-06-24T05:29:32;17.90;99.90
27306;DHT22;14792;50.886;6.468;2023-06-24T05:32:33;17.90;99.90
27306;DHT22;14792;50.886;6.468;2023-06-24T05:35:35;18.10;99.90
27306;DHT22;14792;50.886;6.468;2023-06-24T05:38:37;18.10;99.90
27306;DHT22;14792;50.886;6.468;2023-06-24T05:41:38;18.20;99.90
27306;DHT22;14792;50.886;6.468;2023-06-24T05:44:41;18.30;99.90
27306;DHT22;14792;50.886;6.468;2023-06-24T05:47:42;18.40;99.90
27306;DHT22;14792;50.886;6.468;2023-06-24T05:50:46;18.60;99.90
27306;DHT22;14792;50.886;6.468;2023-06-24T05:53:47;18.60;99.90
27306;DHT22;14792;50.886;6.468;2023-06-24T05:56:49;18.70;99.90
27306;DHT22;14792;50.886;6.468;2023-06-24T05:59:51;18.80;99.90
27306;DHT22;14792;50.886;6.468;2023-06-24T06:02:53;18.90;99.90
27306;DHT22;14792;50.886;6.468;2023-06-24T06:05:54;19.10;99.90
27306;DHT22;14792;50.886;6.468;2023-06-24T06:08:56;19.30;99.90
27306;DHT22;14792;50.886;6.468;2023-06-24T06:11:58;19.30;99.90
27306;DHT22;14792;50.886;6.468;2023-06-24T06:14:59;19.50;99.90
27306;DHT22;14792;50.886;6.468;2023-06-24T06:18:01;19.60;99.90
27306;DHT22;14792;50.886;6.468;2023-06-24T06:21:02;19.80;99.90
27306;DHT22;14792;50.886;6.468;2023-06-24T06:24:04;19.90;99.90
27306;DHT22;14792;50.886;6.468;2023-06-24T06:27:09;20.10;99.90
27306;DHT22;14792;50.886;6.468;2023-06-24T06:30:07;20.30;99.90
27306;DHT22;14792;50.886;6.468;2023-06-24T06:33:09;20.40;99.90
27306;DHT22;14792;50.886;6.468;2023-06-24T06:36:11;20.70;99.90
27306;DHT22;14792;50.886;6.468;2023-06-24T06:39:12;20.80;99.90
27306;DHT22;14792;50.886;6.468;2023-06-24T06:42:14;20.90;99.90
27306;DHT22;14792;50.886;6.468;2023-06-24T06:45:15;21.10;99.90
27306;DHT22;14792;50.886;6.468;2023-06-24T06:48:17;21.30;99.90
27306;DHT22;14792;50.886;6.468;2023-06-24T06:51:18;21.40;99.90
27306;DHT22;14792;50.886;6.468;2023-06-24T06:54:21;21.70;99.90
27306;DHT22;14792;50.886;6.468;2023-06-24T06:57:23;21.90;99.90
27306;DHT22;14792;50.886;6.468;2023-06-24T07:00:24;22.00;99.90
27306;DHT22;14792;50.886;6.468;2023-06-24T07:03:26;22.20;99.90
27306;DHT22;14792;50.886;6.468;2023-06-24T07:06:27;22.30;99.90
27306;DHT22;14792;50.886;6.468;2023-06-24T07:09:29;22.40;99.90
27306;DHT22;14792;50.886;6.468;2023-06-24T07:12:31;22.70;99.90
27306;DHT22;14792;50.886;6.468;2023-06-24T07:15:32;23.00;99.90
27306;DHT22;14792;50.886;6.468;2023-06-24T07:18:34;23.30;99.90
27306;DHT22;14792;50.886;6.468;2023-06-24T07:21:35;23.40;99.90
27306;DHT22;14792;50.886;6.468;2023-06-24T07:24:37;23.50;99.90
27306;DHT22;14792;50.886;6.468;2023-06-24T07:27:39;23.70;99.90
27306;DHT22;14792;50.886;6.468;2023-06-24T07:30:41;23.90;99.90
27306;DHT22;14792;50.886;6.468;2023-06-24T07:33:43;24.00;99.90
27306;DHT22;14792;50.886;6.468;2023-06-24T07:36:44;24.30;99.90
27306;DHT22;14792;50.886;6.468;2023-06-24T07:39:46;24.50;99.90
27306;DHT22;14792;50.886;6.468;2023-06-24T07:42:47;24.80;99.90
27306;DHT22;14792;50.886;6.468;2023-06-24T07:45:49;24.90;99.90
27306;DHT22;14792;50.886;6.468;2023-06-24T07:48:51;24.90;99.90
27306;DHT22;14792;50.886;6.468;2023-06-24T07:51:52;25.20;99.90
27306;DHT22;14792;50.886;6.468;2023-06-24T07:54:54;25.30;99.90
27306;DHT22;14792;50.886;6.468;2023-06-24T07:57:55;25.20;99.90
27306;DHT22;14792;50.886;6.468;2023-06-24T08:00:57;25.40;99.90
27306;DHT22;14792;50.886;6.468;2023-06-24T08:03:59;25.40;99.90
27306;DHT22;14792;50.886;6.468;2023-06-24T08:07:00;25.50;99.90
27306;DHT22;14792;50.886;6.468;2023-06-24T08:10:02;25.60;99.90
27306;DHT22;14792;50.886;6.468;2023-06-24T08:13:03;26.00;99.90
27306;DHT22;14792;50.886;6.468;2023-06-24T08:16:05;26.10;99.90
27306;DHT22;14792;50.886;6.468;2023-06-24T08:19:06;26.30;99.90
27306;DHT22;14792;50.886;6.468;2023-06-24T08:22:08;26.20;99.90
27306;DHT22;14792;50.886;6.468;2023-06-24T08:25:10;26.60;99.90
27306;DHT22;14792;50.886;6.468;2023-06-24T08:28:12;26.50;99.90
27306;DHT22;14792;50.886;6.468;2023-06-24T08:31:14;26.50;99.90
27306;DHT22;14792;50.886;6.468;2023-06-24T08:34:16;26.60;99.90
27306;DHT22;14792;50.886;6.468;2023-06-24T08:37:17;26.70;99.90
27306;DHT22;14792;50.886;6.468;2023-06-24T08:40:19;26.90;99.90
27306;DHT22;14792;50.886;6.468;2023-06-24T08:43:21;27.10;99.90
27306;DHT22;14792;50.886;6.468;2023-06-24T08:46:23;27.20;99.90
27306;DHT22;14792;50.886;6.468;2023-06-24T08:52:26;27.00;99.90
27306;DHT22;14792;50.886;6.468;2023-06-24T08:55:27;27.00;99.90
27306;DHT22;14792;50.886;6.468;2023-06-24T08:58:28;27.40;99.90
27306;DHT22;14792;50.886;6.468;2023-06-24T09:01:30;27.80;99.90
27306;DHT22;14792;50.886;6.468;2023-06-24T09:04:32;27.80;99.90
27306;DHT22;14792;50.886;6.468;2023-06-24T09:07:33;28.00;99.90
27306;DHT22;14792;50.886;6.468;2023-06-24T09:10:35;27.30;99.90
27306;DHT22;14792;50.886;6.468;2023-06-24T09:13:36;27.10;99.90
27306;DHT22;14792;50.886;6.468;2023-06-24T09:16:38;27.60;99.90
27306;DHT22;14792;50.886;6.468;2023-06-24T09:19:40;27.90;99.90
27306;DHT22;14792;50.886;6.468;2023-06-24T09:22:41;28.30;99.90
27306;DHT22;14792;50.886;6.468;2023-06-24T09:25:43;27.80;99.90
27306;DHT22;14792;50.886;6.468;2023-06-24T09:28:48;27.60;99.90
27306;DHT22;14792;50.886;6.468;2023-06-24T09:31:49;28.20;99.90
27306;DHT22;14792;50.886;6.468;2023-06-24T09:34:55;28.70;99.90
27306;DHT22;14792;50.886;6.468;2023-06-24T09:37:56;28.80;99.90
27306;DHT22;14792;50.886;6.468;2023-06-24T09:41:02;27.70;99.90
27306;DHT22;14792;50.886;6.468;2023-06-24T09:44:03;28.30;99.90
27306;DHT22;14792;50.886;6.468;2023-06-24T09:47:04;28.20;99.90
27306;DHT22;14792;50.886;6.468;2023-06-24T09:50:06;28.40;99.90
27306;DHT22;14792;50.886;6.468;2023-06-24T09:53:07;28.50;99.90
27306;DHT22;14792;50.886;6.468;2023-06-24T09:56:09;29.00;99.90
27306;DHT22;14792;50.886;6.468;2023-06-24T09:59:10;29.20;99.90
27306;DHT22;14792;50.886;6.468;2023-06-24T10:02:12;29.30;99.90
27306;DHT22;14792;50.886;6.468;2023-06-24T10:05:13;29.00;99.90
27306;DHT22;14792;50.886;6.468;2023-06-24T10:08:15;29.00;99.90
27306;DHT22;14792;50.886;6.468;2023-06-24T10:11:16;28.80;99.90
27306;DHT22;14792;50.886;6.468;2023-06-24T10:14:18;29.00;99.90
27306;DHT22;14792;50.886;6.468;2023-06-24T10:17:19;29.20;99.90
27306;DHT22;14792;50.886;6.468;2023-06-24T10:20:24;28.90;99.90
27306;DHT22;14792;50.886;6.468;2023-06-24T10:26:48;29.00;99.90
27306;DHT22;14792;50.886;6.468;2023-06-24T10:29:51;29.10;99.90
27306;DHT22;14792;50.886;6.468;2023-06-24T10:32:52;29.00;99.90
27306;DHT22;14792;50.886;6.468;2023-06-24T10:35:56;29.00;99.90
27306;DHT22;14792;50.886;6.468;2023-06-24T10:38:57;29.40;98.80
27306;DHT22;14792;50.886;6.468;2023-06-24T10:42:16;29.40;98.80
27306;DHT22;14792;50.886;6.468;2023-06-24T10:45:02;29.50;98.70
27306;DHT22;14792;50.886;6.468;2023-06-24T10:48:02;29.70;99.60
27306;DHT22;14792;50.886;6.468;2023-06-24T10:51:03;29.60;99.60
27306;DHT22;14792;50.886;6.468;2023-06-24T10:54:05;29.60;96.80
27306;DHT22;14792;50.886;6.468;2023-06-24T10:57:07;29.40;97.60
27306;DHT22;14792;50.886;6.468;2023-06-24T11:00:08;29.20;98.70
27306;DHT22;14792;50.886;6.468;2023-06-24T11:03:13;29.50;98.50
27306;DHT22;14792;50.886;6.468;2023-06-24T11:06:14;29.80;99.50
27306;DHT22;14792;50.886;6.468;2023-06-24T11:09:15;30.20;97.90
27306;DHT22;14792;50.886;6.468;2023-06-24T11:12:17;30.30;98.50
27306;DHT22;14792;50.886;6.468;2023-06-24T11:15:18;30.20;95.20
27306;DHT22;14792;50.886;6.468;2023-06-24T11:18:19;30.10;94.30
27306;DHT22;14792;50.886;6.468;2023-06-24T11:21:40;30.10;95.70
27306;DHT22;14792;50.886;6.468;2023-06-24T11:24:42;29.80;95.50
27306;DHT22;14792;50.886;6.468;2023-06-24T11:27:43;30.20;94.30
27306;DHT22;14792;50.886;6.468;2023-06-24T11:30:45;30.30;95.40
27306;DHT22;14792;50.886;6.468;2023-06-24T11:33:49;30.10;95.50
27306;DHT22;14792;50.886;6.468;2023-06-24T11:36:51;29.90;97.00
27306;DHT22;14792;50.886;6.468;2023-06-24T11:40:05;29.80;93.90
27306;DHT22;14792;50.886;6.468;2023-06-24T11:43:03;29.70;93.40
27306;DHT22;14792;50.886;6.468;2023-06-24T11:46:04;30.30;94.80
27306;DHT22;14792;50.886;6.468;2023-06-24T11:49:06;30.40;93.50
27306;DHT22;14792;50.886;6.468;2023-06-24T11:52:07;30.40;94.60
27306;DHT22;14792;50.886;6.468;2023-06-24T11:55:12;30.00;95.10
27306;DHT22;14792;50.886;6.468;2023-06-24T11:58:18;29.70;90.30
27306;DHT22;14792;50.886;6.468;2023-06-24T12:01:14;30.50;92.60
27306;DHT22;14792;50.886;6.468;2023-06-24T12:04:16;31.00;92.20
27306;DHT22;14792;50.886;6.468;2023-06-24T12:07:17;30.90;93.00
27306;DHT22;14792;50.886;6.468;2023-06-24T12:10:18;30.70;92.10
27306;DHT22;14792;50.886;6.468;2023-06-24T12:13:20;30.80;93.70
27306;DHT22;14792;50.886;6.468;2023-06-24T12:16:21;30.70;91.70
27306;DHT22;14792;50.886;6.468;2023-06-24T12:19:23;30.30;91.20
27306;DHT22;14792;50.886;6.468;2023-06-24T12:22:24;30.00;90.90
27306;DHT22;14792;50.886;6.468;2023-06-24T12:25:26;30.20;90.50
27306;DHT22;14792;50.886;6.468;2023-06-24T12:28:27;30.70;91.10
27306;DHT22;14792;50.886;6.468;2023-06-24T12:31:28;30.80;86.40
27306;DHT22;14792;50.886;6.468;2023-06-24T12:34:30;30.80;90.20
27306;DHT22;14792;50.886;6.468;2023-06-24T12:37:31;30.90;91.20
27306;DHT22;14792;50.886;6.468;2023-06-24T12:40:33;30.90;88.40
27306;DHT22;14792;50.886;6.468;2023-06-24T12:43:34;30.70;91.40
27306;DHT22;14792;50.886;6.468;2023-06-24T12:46:36;30.60;91.00
27306;DHT22;14792;50.886;6.468;2023-06-24T12:49:37;30.50;88.30
27306;DHT22;14792;50.886;6.468;2023-06-24T12:52:38;30.60;89.30
27306;DHT22;14792;50.886;6.468;2023-06-24T12:55:40;30.90;90.60
27306;DHT22;14792;50.886;6.468;2023-06-24T12:58:41;30.80;86.10
27306;DHT22;14792;50.886;6.468;2023-06-24T13:01:42;30.40;85.60
27306;DHT22;14792;50.886;6.468;2023-06-24T13:04:44;30.70;88.50
27306;DHT22;14792;50.886;6.468;2023-06-24T13:07:45;31.20;86.80
27306;DHT22;14792;50.886;6.468;2023-06-24T13:10:47;31.00;86.10
27306;DHT22;14792;50.886;6.468;2023-06-24T13:13:48;31.00;89.00
27306;DHT22;14792;50.886;6.468;2023-06-24T13:16:50;30.80;83.90
27306;DHT22;14792;50.886;6.468;2023-06-24T13:19:51;31.10;81.90
27306;DHT22;14792;50.886;6.468;2023-06-24T13:22:53;30.90;86.70
27306;DHT22;14792;50.886;6.468;2023-06-24T13:25:54;30.80;84.60
27306;DHT22;14792;50.886;6.468;2023-06-24T13:28:56;31.00;83.30
27306;DHT22;14792;50.886;6.468;2023-06-24T13:31:57;31.20;86.40
27306;DHT22;14792;50.886;6.468;2023-06-24T13:34:59;30.80;86.30
27306;DHT22;14792;50.886;6.468;2023-06-24T13:38:00;30.40;86.30
27306;DHT22;14792;50.886;6.468;2023-06-24T13:41:02;30.30;84.80
27306;DHT22;14792;50.886;6.468;2023-06-24T13:44:03;30.40;90.60
27306;DHT22;14792;50.886;6.468;2023-06-24T13:47:04;30.60;82.90
27306;DHT22;14792;50.886;6.468;2023-06-24T13:50:06;30.70;85.90
27306;DHT22;14792;50.886;6.468;2023-06-24T13:53:07;30.90;82.40
27306;DHT22;14792;50.886;6.468;2023-06-24T13:56:09;30.80;83.10
27306;DHT22;14792;50.886;6.468;2023-06-24T13:59:10;30.60;80.80
27306;DHT22;14792;50.886;6.468;2023-06-24T14:02:12;30.60;82.90
27306;DHT22;14792;50.886;6.468;2023-06-24T14:05:13;30.50;83.40
27306;DHT22;14792;50.886;6.468;2023-06-24T14:08:14;30.60;80.20
27306;DHT22;14792;50.886;6.468;2023-06-24T14:11:16;30.80;84.80
27306;DHT22;14792;50.886;6.468;2023-06-24T14:14:17;31.00;82.00
27306;DHT22;14792;50.886;6.468;2023-06-24T14:17:18;30.90;83.20
27306;DHT22;14792;50.886;6.468;2023-06-24T14:20:20;30.40;79.50
27306;DHT22;14792;50.886;6.468;2023-06-24T14:23:21;30.40;80.40
27306;DHT22;14792;50.886;6.468;2023-06-24T14:26:23;30.40;84.80
27306;DHT22;14792;50.886;6.468;2023-06-24T14:29:24;30.10;79.00
27306;DHT22;14792;50.886;6.468;2023-06-24T14:32:26;30.00;82.70
27306;DHT22;14792;50.886;6.468;2023-06-24T14:35:27;30.20;83.20
27306;DHT22;14792;50.886;6.468;2023-06-24T14:38:28;30.50;79.90
27306;DHT22;14792;50.886;6.468;2023-06-24T14:41:30;30.40;82.90
27306;DHT22;14792;50.886;6.468;2023-06-24T14:44:31;30.50;80.80
27306;DHT22;14792;50.886;6.468;2023-06-24T14:47:33;30.60;80.50
27306;DHT22;14792;50.886;6.468;2023-06-24T14:50:34;30.60;80.80
27306;DHT22;14792;50.886;6.468;2023-06-24T14:53:35;30.30;78.90
27306;DHT22;14792;50.886;6.468;2023-06-24T14:56:37;30.40;84.50
27306;DHT22;14792;50.886;6.468;2023-06-24T14:59:38;30.70;81.30
27306;DHT22;14792;50.886;6.468;2023-06-24T15:02:40;30.80;79.80
27306;DHT22;14792;50.886;6.468;2023-06-24T15:05:41;30.50;79.80
27306;DHT22;14792;50.886;6.468;2023-06-24T15:08:42;30.50;82.50
27306;DHT22;14792;50.886;6.468;2023-06-24T15:11:44;30.20;79.20
27306;DHT22;14792;50.886;6.468;2023-06-24T15:14:45;29.90;83.20
27306;DHT22;14792;50.886;6.468;2023-06-24T15:17:47;30.10;80.50
27306;DHT22;14792;50.886;6.468;2023-06-24T15:20:48;30.10;79.60
27306;DHT22;14792;50.886;6.468;2023-06-24T15:23:49;30.10;80.60
27306;DHT22;14792;50.886;6.468;2023-06-24T15:26:51;30.00;82.40
27306;DHT22;14792;50.886;6.468;2023-06-24T15:29:53;30.40;81.90
27306;DHT22;14792;50.886;6.468;2023-06-24T15:32:54;30.60;77.60
27306;DHT22;14792;50.886;6.468;2023-06-24T15:35:56;30.20;81.30
27306;DHT22;14792;50.886;6.468;2023-06-24T15:38:57;30.10;80.40
27306;DHT22;14792;50.886;6.468;2023-06-24T15:41:59;30.10;83.80
27306;DHT22;14792;50.886;6.468;2023-06-24T15:45:00;30.00;82.20
27306;DHT22;14792;50.886;6.468;2023-06-24T15:48:01;30.00;84.20
27306;DHT22;14792;50.886;6.468;2023-06-24T15:51:03;30.00;86.10
27306;DHT22;14792;50.886;6.468;2023-06-24T15:54:04;30.00;86.90
27306;DHT22;14792;50.886;6.468;2023-06-24T15:57:05;30.00;84.00
27306;DHT22;14792;50.886;6.468;2023-06-24T16:00:07;30.20;85.20
27306;DHT22;14792;50.886;6.468;2023-06-24T16:03:08;30.20;80.50
27306;DHT22;14792;50.886;6.468;2023-06-24T16:06:10;29.70;81.90
27306;DHT22;14792;50.886;6.468;2023-06-24T16:09:11;29.50;80.60
27306;DHT22;14792;50.886;6.468;2023-06-24T16:12:13;29.30;82.30
27306;DHT22;14792;50.886;6.468;2023-06-24T16:15:14;29.40;81.40
27306;DHT22;14792;50.886;6.468;2023-06-24T16:18:15;29.30;79.60
27306;DHT22;14792;50.886;6.468;2023-06-24T16:21:17;29.40;79.90
27306;DHT22;14792;50.886;6.468;2023-06-24T16:24:18;29.50;79.00
27306;DHT22;14792;50.886;6.468;2023-06-24T16:27:20;29.50;78.30
27306;DHT22;14792;50.886;6.468;2023-06-24T16:30:21;29.40;76.90
27306;DHT22;14792;50.886;6.468;2023-06-24T16:33:23;29.40;81.10
27306;DHT22;14792;50.886;6.468;2023-06-24T16:36:24;29.60;80.80
27306;DHT22;14792;50.886;6.468;2023-06-24T16:39:26;29.70;81.40
27306;DHT22;14792;50.886;6.468;2023-06-24T16:42:27;29.60;82.00
27306;DHT22;14792;50.886;6.468;2023-06-24T16:45:29;29.70;80.80
27306;DHT22;14792;50.886;6.468;2023-06-24T16:48:30;29.80;77.40
27306;DHT22;14792;50.886;6.468;2023-06-24T16:51:35;29.40;82.90
27306;DHT22;14792;50.886;6.468;2023-06-24T16:54:33;29.30;79.70
27306;DHT22;14792;50.886;6.468;2023-06-24T16:57:35;29.50;78.80
27306;DHT22;14792;50.886;6.468;2023-06-24T17:00:36;29.20;81.80
27306;DHT22;14792;50.886;6.468;2023-06-24T17:03:37;29.10;81.40
27306;DHT22;14792;50.886;6.468;2023-06-24T17:06:39;29.00;81.10
27306;DHT22;14792;50.886;6.468;2023-06-24T17:09:40;28.80;82.40
27306;DHT22;14792;50.886;6.468;2023-06-24T17:12:42;28.70;82.50
27306;DHT22;14792;50.886;6.468;2023-06-24T17:15:43;28.60;83.90
27306;DHT22;14792;50.886;6.468;2023-06-24T17:18:45;28.90;84.50
27306;DHT22;14792;50.886;6.468;2023-06-24T17:21:46;29.00;85.00
27306;DHT22;14792;50.886;6.468;2023-06-24T17:24:48;28.90;82.40
27306;DHT22;14792;50.886;6.468;2023-06-24T17:27:49;28.60;83.30
27306;DHT22;14792;50.886;6.468;2023-06-24T17:30:51;28.40;83.20
27306;DHT22;14792;50.886;6.468;2023-06-24T17:33:53;28.20;82.60
27306;DHT22;14792;50.886;6.468;2023-06-24T17:36:54;28.40;81.70
27306;DHT22;14792;50.886;6.468;2023-06-24T17:39:56;28.40;82.00
27306;DHT22;14792;50.886;6.468;2023-06-24T17:42:57;28.40;83.50
27306;DHT22;14792;50.886;6.468;2023-06-24T17:45:59;28.40;83.20
27306;DHT22;14792;50.886;6.468;2023-06-24T17:49:00;28.20;80.80
27306;DHT22;14792;50.886;6.468;2023-06-24T17:52:02;28.10;83.30
27306;DHT22;14792;50.886;6.468;2023-06-24T17:55:04;27.80;83.60
27306;DHT22;14792;50.886;6.468;2023-06-24T17:58:05;27.70;83.30
27306;DHT22;14792;50.886;6.468;2023-06-24T18:01:06;27.70;84.70
27306;DHT22;14792;50.886;6.468;2023-06-24T18:04:08;27.50;83.70
27306;DHT22;14792;50.886;6.468;2023-06-24T18:07:10;27.50;84.70
27306;DHT22;14792;50.886;6.468;2023-06-24T18:10:11;27.50;85.50
27306;DHT22;14792;50.886;6.468;2023-06-24T18:13:13;27.30;83.70
27306;DHT22;14792;50.886;6.468;2023-06-24T18:16:14;27.20;83.00
27306;DHT22;14792;50.886;6.468;2023-06-24T18:19:17;27.10;82.00
27306;DHT22;14792;50.886;6.468;2023-06-24T18:22:17;26.90;83.40
27306;DHT22;14792;50.886;6.468;2023-06-24T18:25:19;26.80;83.70
27306;DHT22;14792;50.886;6.468;2023-06-24T18:28:21;26.80;83.90
27306;DHT22;14792;50.886;6.468;2023-06-24T18:31:23;26.70;85.70
27306;DHT22;14792;50.886;6.468;2023-06-24T18:34:24;26.50;86.30
27306;DHT22;14792;50.886;6.468;2023-06-24T18:37:26;26.40;87.50
27306;DHT22;14792;50.886;6.468;2023-06-24T18:40:27;26.30;88.30
27306;DHT22;14792;50.886;6.468;2023-06-24T18:43:29;26.20;88.50
27306;DHT22;14792;50.886;6.468;2023-06-24T18:46:32;26.20;90.60
27306;DHT22;14792;50.886;6.468;2023-06-24T18:49:33;26.10;90.70
27306;DHT22;14792;50.886;6.468;2023-06-24T18:52:35;26.00;90.40
27306;DHT22;14792;50.886;6.468;2023-06-24T18:55:37;25.90;91.00
27306;DHT22;14792;50.886;6.468;2023-06-24T18:58:38;25.80;91.20
27306;DHT22;14792;50.886;6.468;2023-06-24T19:01:40;25.70;92.00
27306;DHT22;14792;50.886;6.468;2023-06-24T19:04:41;25.60;92.10
27306;DHT22;14792;50.886;6.468;2023-06-24T19:07:43;25.50;92.60
27306;DHT22;14792;50.886;6.468;2023-06-24T19:10:45;25.40;92.90
27306;DHT22;14792;50.886;6.468;2023-06-24T19:13:46;25.30;93.30
27306;DHT22;14792;50.886;6.468;2023-06-24T19:16:48;25.30;94.00
27306;DHT22;14792;50.886;6.468;2023-06-24T19:19:50;25.40;95.20